Salesville, Texas
Current Conditions -  °F | °C
As of 1:53 AM on Saturday 20 Dec 2014 (Local Time) from KMWL Reporting Station
Overcast Overcast  
Wind Chill: 45°   Ceiling: 1200
Heat Index: 45°   Visibility: 10mi
Dew Point: 40°   Wind: 3mph
Humidity: 82%   Direction: 40°NE
Pressure: 30.2"   Gusts: NA
Location:  32.7965°N, 98.1108°W
Report Text: KMWL 200753Z AUTO 04003KT 10SM OVC012 07/04 A3020 RMK AO2 SLP224 T00720044
Loading
Personal Weather Stations






























Interactive Weather Map New forecast layout! Learn more

10-Day Weather Forecast

Advertisements
Track Severe Weather on mobile